createdAt,value
2023-04-06T00:00:27.180Z,16.50
2023-04-06T00:01:29.669Z,16.50
2023-04-06T00:02:32.330Z,16.50
2023-04-06T00:03:35.537Z,16.50
2023-04-06T00:04:38.192Z,16.50
2023-04-06T00:05:41.171Z,16.40
2023-04-06T00:06:43.754Z,16.40
2023-04-06T00:07:46.329Z,16.40
2023-04-06T00:08:48.904Z,16.40
2023-04-06T00:09:51.562Z,16.40
2023-04-06T00:10:54.046Z,16.40
2023-04-06T00:11:57.508Z,16.40
2023-04-06T00:13:01.094Z,16.40
2023-04-06T00:14:03.709Z,16.40
2023-04-06T00:15:07.552Z,16.40
2023-04-06T00:16:10.473Z,16.40
2023-04-06T00:17:12.983Z,16.40
2023-04-06T00:18:15.533Z,16.40
2023-04-06T00:19:18.113Z,16.40
2023-04-06T00:20:20.546Z,16.30
2023-04-06T00:21:24.333Z,16.30
2023-04-06T00:22:26.916Z,16.30
2023-04-06T00:23:29.315Z,16.30
2023-04-06T00:24:31.805Z,16.30
2023-04-06T00:25:34.237Z,16.30
2023-04-06T00:26:37.142Z,16.30
2023-04-06T00:27:39.992Z,16.30
2023-04-06T00:28:43.446Z,16.30
2023-04-06T00:29:46.456Z,16.30
2023-04-06T00:30:48.902Z,16.30
2023-04-06T00:31:51.433Z,16.20
2023-04-06T00:32:53.967Z,16.20
2023-04-06T00:33:56.605Z,16.20
2023-04-06T00:34:59.803Z,16.20
2023-04-06T00:36:02.541Z,16.20
2023-04-06T00:37:05.150Z,16.20
2023-04-06T00:38:07.987Z,16.20
2023-04-06T00:39:11.171Z,16.20
2023-04-06T00:40:14.177Z,16.20
2023-04-06T00:41:17.050Z,16.20
2023-04-06T00:42:26.190Z,16.20
2023-04-06T00:43:28.628Z,16.20
2023-04-06T00:44:32.959Z,16.20
2023-04-06T00:45:35.609Z,16.20
2023-04-06T00:46:38.141Z,16.20
2023-04-06T00:47:40.599Z,16.20
2023-04-06T00:48:43.175Z,16.20
2023-04-06T00:49:45.653Z,16.20
2023-04-06T00:50:48.066Z,16.30
2023-04-06T00:51:50.521Z,16.20
2023-04-06T00:52:53.889Z,16.20
2023-04-06T00:54:00.987Z,16.20
2023-04-06T00:55:06.475Z,16.20
2023-04-06T00:56:13.151Z,16.20
2023-04-06T00:57:27.730Z,16.20
2023-04-06T00:58:32.515Z,16.20
2023-04-06T00:59:42.049Z,16.20
2023-04-06T01:00:47.058Z,16.20
2023-04-06T01:01:53.653Z,16.20
2023-04-06T01:03:14.735Z,16.20
2023-04-06T01:04:19.249Z,16.20
2023-04-06T01:05:21.801Z,16.20
2023-04-06T01:06:28.073Z,16.20
2023-04-06T01:07:35.346Z,16.20
2023-04-06T01:08:53.964Z,16.20
2023-04-06T01:10:02.360Z,16.20
2023-04-06T01:11:09.108Z,16.20
2023-04-06T01:12:12.306Z,16.10
2023-04-06T01:13:14.764Z,16.10
2023-04-06T01:14:38.245Z,16.20
2023-04-06T01:15:42.271Z,16.10
2023-04-06T01:16:47.108Z,16.10
2023-04-06T01:17:52.790Z,16.10
2023-04-06T01:18:55.200Z,16.10
2023-04-06T01:20:03.573Z,16.10
2023-04-06T01:21:09.685Z,16.10
2023-04-06T01:22:17.728Z,16.10
2023-04-06T01:23:28.125Z,16.00
2023-04-06T01:24:31.331Z,16.00
2023-04-06T01:26:00.036Z,16.00
2023-04-06T01:27:04.447Z,16.00
2023-04-06T01:28:16.712Z,16.00
2023-04-06T01:29:29.162Z,16.00
2023-04-06T01:30:41.263Z,16.00
2023-04-06T01:31:57.823Z,16.00
2023-04-06T01:33:01.202Z,16.00
2023-04-06T01:34:32.913Z,16.00
2023-04-06T01:35:39.276Z,16.00
2023-04-06T01:36:49.280Z,16.00
2023-04-06T01:38:00.740Z,15.90
2023-04-06T01:39:07.718Z,15.90
2023-04-06T01:40:14.732Z,15.90
2023-04-06T01:41:24.715Z,15.90
2023-04-06T01:42:29.373Z,15.90
2023-04-06T01:43:32.258Z,16.00
2023-04-06T01:44:43.909Z,16.00
2023-04-06T01:45:50.687Z,16.00
2023-04-06T01:46:56.742Z,16.00
2023-04-06T01:47:59.473Z,16.10
2023-04-06T01:49:03.421Z,16.10
2023-04-06T01:50:11.507Z,16.10
2023-04-06T01:51:18.969Z,16.10
2023-04-06T01:52:30.661Z,16.10
2023-04-06T01:53:33.658Z,16.10
2023-04-06T01:54:40.892Z,16.10
2023-04-06T01:55:59.128Z,16.10
2023-04-06T01:57:06.421Z,16.10
2023-04-06T01:58:16.044Z,16.10
2023-04-06T01:59:18.626Z,16.10
2023-04-06T02:00:21.617Z,16.10
2023-04-06T02:01:29.097Z,16.20
2023-04-06T02:02:33.720Z,16.20
2023-04-06T02:03:40.561Z,16.20
2023-04-06T02:04:46.323Z,16.20
2023-04-06T02:05:50.524Z,16.20
2023-04-06T02:07:01.401Z,16.20
2023-04-06T02:08:06.370Z,16.20
2023-04-06T02:09:11.188Z,16.20
2023-04-06T02:10:15.109Z,16.20
2023-04-06T02:11:18.859Z,16.20
2023-04-06T02:12:28.191Z,16.20
2023-04-06T02:13:31.019Z,16.20
2023-04-06T02:14:34.469Z,16.20
2023-04-06T02:15:37.464Z,16.20
2023-04-06T02:16:40.884Z,16.20
2023-04-06T02:17:43.915Z,16.20
2023-04-06T02:18:46.882Z,16.20
2023-04-06T02:19:49.299Z,16.20
2023-04-06T02:20:52.083Z,16.20
2023-04-06T02:21:54.938Z,16.20
2023-04-06T02:22:59.755Z,16.20
2023-04-06T02:24:02.327Z,16.20
2023-04-06T02:25:06.014Z,16.20
2023-04-06T02:26:09.378Z,16.20
2023-04-06T02:27:12.136Z,16.20
2023-04-06T02:28:14.654Z,16.20
2023-04-06T02:29:17.119Z,16.20
2023-04-06T02:30:19.580Z,16.10
2023-04-06T02:31:22.927Z,16.10
2023-04-06T02:32:26.342Z,16.10
2023-04-06T02:33:29.591Z,16.10
2023-04-06T02:34:32.137Z,16.10
2023-04-06T02:35:34.599Z,16.10
2023-04-06T02:36:37.108Z,16.10
2023-04-06T02:37:39.639Z,16.10
2023-04-06T02:38:42.205Z,16.10
2023-04-06T02:39:48.430Z,16.10
2023-04-06T02:40:51.078Z,16.10
2023-04-06T02:42:01.992Z,16.10
2023-04-06T02:43:05.938Z,16.10
2023-04-06T02:44:09.729Z,16.10
2023-04-06T02:45:19.701Z,16.10
2023-04-06T02:46:23.732Z,16.10
2023-04-06T02:47:26.385Z,16.10
2023-04-06T02:48:28.882Z,16.10
2023-04-06T02:49:31.328Z,16.10
2023-04-06T02:50:35.748Z,16.10
2023-04-06T02:51:42.033Z,16.10
2023-04-06T02:53:04.191Z,16.10
2023-04-06T02:54:12.137Z,15.90
2023-04-06T02:55:14.810Z,15.10
2023-04-06T02:56:17.353Z,14.50
2023-04-06T02:57:25.253Z,14.90
2023-04-06T02:58:27.946Z,15.40
2023-04-06T02:59:35.929Z,15.90
2023-04-06T03:00:48.094Z,16.20
2023-04-06T03:01:50.845Z,16.60
2023-04-06T03:02:53.826Z,16.80
2023-04-06T03:03:56.488Z,17.00
2023-04-06T03:05:02.469Z,17.20
2023-04-06T03:06:10.571Z,17.40
2023-04-06T03:07:13.286Z,17.60
2023-04-06T03:08:16.350Z,17.70
2023-04-06T03:09:21.106Z,17.80
2023-04-06T03:10:23.602Z,17.90
2023-04-06T03:11:27.396Z,17.60
2023-04-06T03:12:29.875Z,16.50
2023-04-06T03:14:04.586Z,15.50
2023-04-06T03:15:07.622Z,15.40
2023-04-06T03:16:11.031Z,15.80
2023-04-06T03:17:13.784Z,16.20
2023-04-06T03:18:16.212Z,16.50
2023-04-06T03:19:23.879Z,16.70
2023-04-06T03:20:27.173Z,17.00
2023-04-06T03:21:29.672Z,17.20
2023-04-06T03:22:32.163Z,17.30
2023-04-06T03:23:34.635Z,17.40
2023-04-06T03:24:38.268Z,17.60
2023-04-06T03:25:41.536Z,17.70
2023-04-06T03:26:46.564Z,17.80
2023-04-06T03:27:49.206Z,17.90
2023-04-06T03:28:54.421Z,17.90
2023-04-06T03:30:01.682Z,18.00
2023-04-06T03:31:09.137Z,18.10
2023-04-06T03:32:27.200Z,18.10
2023-04-06T03:33:29.793Z,18.20
2023-04-06T03:34:33.059Z,18.20
2023-04-06T03:35:35.682Z,18.30
2023-04-06T03:36:38.261Z,18.30
2023-04-06T03:37:40.988Z,18.30
2023-04-06T03:38:43.397Z,17.60
2023-04-06T03:39:50.361Z,16.50
2023-04-06T03:40:57.470Z,16.20
2023-04-06T03:42:02.833Z,16.50
2023-04-06T03:43:13.466Z,16.80
2023-04-06T03:44:16.489Z,17.20
2023-04-06T03:45:20.458Z,17.50
2023-04-06T03:46:26.547Z,17.80
2023-04-06T03:47:31.994Z,18.00
2023-04-06T03:48:38.653Z,18.10
2023-04-06T03:49:42.619Z,18.20
2023-04-06T03:50:47.430Z,18.30
2023-04-06T03:51:49.985Z,18.30
2023-04-06T03:52:52.422Z,18.40
2023-04-06T03:53:54.856Z,18.40
2023-04-06T03:54:57.278Z,18.40
2023-04-06T03:55:59.808Z,18.50
2023-04-06T03:57:04.799Z,18.50
2023-04-06T03:58:07.250Z,18.60
2023-04-06T03:59:09.860Z,18.60
2023-04-06T04:00:13.683Z,18.60
2023-04-06T04:01:16.637Z,18.70
2023-04-06T04:02:19.266Z,18.70
2023-04-06T04:03:24.525Z,18.80
2023-04-06T04:04:27.160Z,18.80
2023-04-06T04:05:29.835Z,18.80
2023-04-06T04:06:32.350Z,18.80
2023-04-06T04:07:34.880Z,18.70
2023-04-06T04:08:37.551Z,18.50
2023-04-06T04:09:40.085Z,18.30
2023-04-06T04:10:42.476Z,18.40
2023-04-06T04:11:44.949Z,18.50
2023-04-06T04:12:47.457Z,18.60
2023-04-06T04:13:50.016Z,18.70
2023-04-06T04:14:52.367Z,18.70
2023-04-06T04:15:54.731Z,18.80
2023-04-06T04:16:59.681Z,18.80
2023-04-06T04:18:02.315Z,18.80
2023-04-06T04:19:04.876Z,18.90
2023-04-06T04:20:08.014Z,18.90
2023-04-06T04:21:11.384Z,18.90
2023-04-06T04:22:14.141Z,19.00
2023-04-06T04:23:18.663Z,19.00
2023-04-06T04:24:21.120Z,19.00
2023-04-06T04:25:24.395Z,19.00
2023-04-06T04:26:26.759Z,19.00
2023-04-06T04:27:30.196Z,19.10
2023-04-06T04:28:32.629Z,19.10
2023-04-06T04:29:35.568Z,19.10
2023-04-06T04:30:42.237Z,19.10
2023-04-06T04:31:47.149Z,19.10
2023-04-06T04:32:53.290Z,19.10
2023-04-06T04:34:00.301Z,19.10
2023-04-06T04:35:07.286Z,19.10
2023-04-06T04:36:13.134Z,19.20
2023-04-06T04:37:18.710Z,19.20
2023-04-06T04:38:32.105Z,19.20
2023-04-06T04:39:34.931Z,19.20
2023-04-06T04:40:41.421Z,19.30
2023-04-06T04:41:47.192Z,19.20
2023-04-06T04:42:51.936Z,19.30
2023-04-06T04:44:03.981Z,19.30
2023-04-06T04:45:06.806Z,19.30
2023-04-06T04:46:13.503Z,19.30
2023-04-06T04:47:19.887Z,19.30
2023-04-06T04:48:23.807Z,19.30
2023-04-06T04:49:34.258Z,19.30
2023-04-06T04:50:36.946Z,19.30
2023-04-06T04:51:39.429Z,19.40
2023-04-06T04:52:48.178Z,19.30
2023-04-06T04:53:57.695Z,19.40
2023-04-06T04:55:04.037Z,19.40
2023-04-06T04:56:08.937Z,19.40
2023-04-06T04:57:11.354Z,19.40
2023-04-06T04:58:20.631Z,19.40
2023-04-06T04:59:31.189Z,19.40
2023-04-06T05:00:44.202Z,19.40
2023-04-06T05:01:54.977Z,19.40
2023-04-06T05:03:06.003Z,19.40
2023-04-06T05:04:12.156Z,19.50
2023-04-06T05:05:14.970Z,19.50
2023-04-06T05:06:17.879Z,19.40
2023-04-06T05:07:21.790Z,19.20
2023-04-06T05:08:25.342Z,19.30
2023-04-06T05:09:27.795Z,19.40
2023-04-06T05:10:30.371Z,19.40
2023-04-06T05:11:36.274Z,19.40
2023-04-06T05:12:39.285Z,19.40
2023-04-06T05:13:43.744Z,19.50
2023-04-06T05:14:52.126Z,19.50
2023-04-06T05:15:56.156Z,19.50
2023-04-06T05:17:05.271Z,19.50
2023-04-06T05:18:12.017Z,19.60
2023-04-06T05:19:14.705Z,19.60
2023-04-06T05:20:20.222Z,19.60
2023-04-06T05:21:27.437Z,19.60
2023-04-06T05:22:37.204Z,19.60
2023-04-06T05:23:43.918Z,19.60
2023-04-06T05:24:47.065Z,19.60
2023-04-06T05:25:51.114Z,19.60
2023-04-06T05:26:57.412Z,19.70
2023-04-06T05:28:01.346Z,19.70
2023-04-06T05:29:12.423Z,19.70
2023-04-06T05:30:16.414Z,19.70
2023-04-06T05:31:22.376Z,19.60
2023-04-06T05:32:28.031Z,19.70
2023-04-06T05:33:30.752Z,19.60
2023-04-06T05:34:38.907Z,19.30
2023-04-06T05:35:41.485Z,19.10
2023-04-06T05:36:48.277Z,18.80
2023-04-06T05:37:54.586Z,18.80
2023-04-06T05:39:00.350Z,18.90
2023-04-06T05:40:11.546Z,19.10
2023-04-06T05:41:13.971Z,19.30
2023-04-06T05:42:17.964Z,19.30
2023-04-06T05:43:28.023Z,19.40
2023-04-06T05:44:33.300Z,19.40
2023-04-06T05:45:44.967Z,19.50
2023-04-06T05:46:47.462Z,19.50
2023-04-06T05:47:53.430Z,19.50
2023-04-06T05:49:00.531Z,19.60
2023-04-06T05:50:06.979Z,19.60
2023-04-06T05:51:12.480Z,19.60
2023-04-06T05:52:21.811Z,19.70
2023-04-06T05:53:27.367Z,19.70
2023-04-06T05:54:32.835Z,19.70
2023-04-06T05:55:37.667Z,19.70
2023-04-06T05:56:47.561Z,19.80
2023-04-06T05:57:56.385Z,19.70
2023-04-06T05:58:59.085Z,19.80
2023-04-06T06:00:07.810Z,19.80
2023-04-06T06:01:21.625Z,19.80
2023-04-06T06:02:25.061Z,19.80
2023-04-06T06:03:30.254Z,19.80
2023-04-06T06:04:34.555Z,19.80
2023-04-06T06:05:37.840Z,19.80
2023-04-06T06:06:46.315Z,19.80
2023-04-06T06:07:55.677Z,19.80
2023-04-06T06:09:02.143Z,19.80
2023-04-06T06:10:09.272Z,19.80
2023-04-06T06:11:13.070Z,19.80
2023-04-06T06:12:16.121Z,19.90
2023-04-06T06:13:18.659Z,19.90
2023-04-06T06:14:23.158Z,19.90
2023-04-06T06:15:25.776Z,19.90
2023-04-06T06:16:28.856Z,19.90
2023-04-06T06:17:31.479Z,19.90
2023-04-06T06:18:34.384Z,19.90
2023-04-06T06:19:36.858Z,19.90
2023-04-06T06:20:42.444Z,19.90
2023-04-06T06:21:44.845Z,19.90
2023-04-06T06:22:47.199Z,19.90
2023-04-06T06:23:54.998Z,19.80
2023-04-06T06:24:57.995Z,19.70
2023-04-06T06:26:02.091Z,19.70
2023-04-06T06:27:05.450Z,19.80
2023-04-06T06:28:13.629Z,19.90
2023-04-06T06:29:16.325Z,19.90
2023-04-06T06:30:21.496Z,20.00
2023-04-06T06:31:25.661Z,20.00
2023-04-06T06:32:28.355Z,20.00
2023-04-06T06:33:30.910Z,20.00
2023-04-06T06:34:34.614Z,20.00
2023-04-06T06:35:39.807Z,20.00
2023-04-06T06:36:42.427Z,20.00
2023-04-06T06:37:47.241Z,20.00
2023-04-06T06:38:53.208Z,20.00
2023-04-06T06:39:57.390Z,20.00
2023-04-06T06:41:00.052Z,20.00
2023-04-06T06:42:06.441Z,20.00
2023-04-06T06:43:41.106Z,20.10
2023-04-06T06:44:45.922Z,20.10
2023-04-06T06:45:48.919Z,20.10
2023-04-06T06:46:51.573Z,20.10
2023-04-06T06:47:55.736Z,20.10
2023-04-06T06:48:59.901Z,20.10
2023-04-06T06:50:04.089Z,19.70
2023-04-06T06:51:06.614Z,19.30
2023-04-06T06:52:09.117Z,19.00
2023-04-06T06:53:12.578Z,18.90
2023-04-06T06:54:15.312Z,18.70
2023-04-06T06:55:19.914Z,18.60
2023-04-06T06:56:22.999Z,18.60
2023-04-06T06:57:27.474Z,18.50
2023-04-06T06:58:29.935Z,18.70
2023-04-06T06:59:32.633Z,19.00
2023-04-06T07:00:35.606Z,19.20
2023-04-06T07:01:38.653Z,19.30
2023-04-06T07:02:41.653Z,19.50
2023-04-06T07:03:44.225Z,19.50
2023-04-06T07:04:50.326Z,19.60
2023-04-06T07:05:56.258Z,19.60
2023-04-06T07:07:00.647Z,19.70
2023-04-06T07:08:03.242Z,19.70
2023-04-06T07:09:06.071Z,19.70
2023-04-06T07:10:09.971Z,19.80
2023-04-06T07:11:14.522Z,18.90
2023-04-06T07:12:17.642Z,18.20
2023-04-06T07:13:24.908Z,18.10
2023-04-06T07:14:30.527Z,18.50
2023-04-06T07:15:35.064Z,18.90
2023-04-06T07:16:38.386Z,19.10
2023-04-06T07:17:42.461Z,19.30
2023-04-06T07:18:45.232Z,19.40
2023-04-06T07:19:57.419Z,19.50
2023-04-06T07:21:01.945Z,19.60
2023-04-06T07:22:05.604Z,19.60
2023-04-06T07:23:08.384Z,19.60
2023-04-06T07:24:11.403Z,19.70
2023-04-06T07:25:14.181Z,19.70
2023-04-06T07:26:17.593Z,19.70
2023-04-06T07:27:20.126Z,19.80
2023-04-06T07:28:23.590Z,19.90
2023-04-06T07:29:26.071Z,19.90
2023-04-06T07:30:31.711Z,19.90
2023-04-06T07:31:37.017Z,19.90
2023-04-06T07:32:40.223Z,19.90
2023-04-06T07:33:43.839Z,20.00
2023-04-06T07:34:47.842Z,20.00
2023-04-06T07:35:51.576Z,20.10
2023-04-06T07:36:55.525Z,20.10
2023-04-06T07:37:58.264Z,20.10
2023-04-06T07:39:00.930Z,20.10
2023-04-06T07:40:03.605Z,20.10
2023-04-06T07:41:06.469Z,20.10
2023-04-06T07:42:09.218Z,20.10
2023-04-06T07:43:11.778Z,20.10
2023-04-06T07:44:14.275Z,20.10
2023-04-06T07:45:16.912Z,20.20
2023-04-06T07:46:19.620Z,20.20
2023-04-06T07:47:22.754Z,20.20
2023-04-06T07:48:25.402Z,20.20
2023-04-06T07:49:27.919Z,20.10
2023-04-06T07:50:31.198Z,20.10
2023-04-06T07:51:34.089Z,20.20
2023-04-06T07:52:39.465Z,20.20
2023-04-06T07:54:07.298Z,20.20
2023-04-06T07:55:10.755Z,20.20
2023-04-06T07:56:13.521Z,20.30
2023-04-06T07:57:16.287Z,20.30
2023-04-06T07:58:19.125Z,20.30
2023-04-06T07:59:21.889Z,20.30
2023-04-06T08:00:24.499Z,20.30
2023-04-06T08:01:28.714Z,20.30
2023-04-06T08:02:34.391Z,20.30
2023-04-06T08:03:37.378Z,20.30
2023-04-06T08:04:40.025Z,20.30
2023-04-06T08:05:42.517Z,20.30
2023-04-06T08:06:45.157Z,20.30
2023-04-06T08:07:47.768Z,20.30
2023-04-06T08:08:50.525Z,20.30
2023-04-06T08:09:53.229Z,20.30
2023-04-06T08:10:55.812Z,20.30
2023-04-06T08:11:58.792Z,20.30
2023-04-06T08:13:01.653Z,20.30
2023-04-06T08:14:04.127Z,20.30
2023-04-06T08:15:07.096Z,20.30
2023-04-06T08:16:09.775Z,20.30
2023-04-06T08:17:12.727Z,20.30
2023-04-06T08:18:15.166Z,20.30
2023-04-06T08:19:19.846Z,20.30
2023-04-06T08:20:22.386Z,20.30
2023-04-06T08:21:24.851Z,20.30
2023-04-06T08:22:27.398Z,20.40
2023-04-06T08:23:29.845Z,20.40
2023-04-06T08:24:33.315Z,20.40
2023-04-06T08:25:36.977Z,20.40
2023-04-06T08:26:39.679Z,20.40
2023-04-06T08:27:42.232Z,20.40
2023-04-06T08:28:46.955Z,20.40
2023-04-06T08:29:50.756Z,20.40
2023-04-06T08:30:53.827Z,20.40
2023-04-06T08:31:56.433Z,20.40
2023-04-06T08:32:59.213Z,20.50
2023-04-06T08:34:02.813Z,20.50
2023-04-06T08:35:05.636Z,20.50
2023-04-06T08:36:13.009Z,20.50
2023-04-06T08:37:16.189Z,20.50
2023-04-06T08:38:18.844Z,20.50
2023-04-06T08:39:26.406Z,20.50
2023-04-06T08:40:29.301Z,20.50
2023-04-06T08:41:33.084Z,20.50
2023-04-06T08:42:45.017Z,20.50
2023-04-06T08:43:58.093Z,20.50
2023-04-06T08:45:01.559Z,20.50
2023-04-06T08:46:04.451Z,20.50
2023-04-06T08:47:07.418Z,20.50
2023-04-06T08:48:10.741Z,20.50
2023-04-06T08:49:15.138Z,20.50
2023-04-06T08:50:19.036Z,20.50
2023-04-06T08:51:23.131Z,20.50
2023-04-06T08:52:27.795Z,20.50
2023-04-06T08:53:31.333Z,20.50
2023-04-06T08:54:33.926Z,20.50
2023-04-06T08:55:37.803Z,20.50
2023-04-06T08:56:40.808Z,20.50
2023-04-06T08:57:44.153Z,20.50
2023-04-06T08:58:48.732Z,20.60
2023-04-06T08:59:52.309Z,20.50
2023-04-06T09:00:56.054Z,20.60
2023-04-06T09:02:00.436Z,20.50
2023-04-06T09:03:04.718Z,20.60
2023-04-06T09:04:12.303Z,20.60
2023-04-06T09:05:16.826Z,20.60
2023-04-06T09:06:20.269Z,20.60
2023-04-06T09:07:23.048Z,20.60
2023-04-06T09:08:25.879Z,20.60
2023-04-06T09:09:28.456Z,20.60
2023-04-06T09:10:30.977Z,20.60
2023-04-06T09:11:48.490Z,20.70
2023-04-06T09:12:51.360Z,20.60
2023-04-06T09:13:56.826Z,20.50
2023-04-06T09:15:00.366Z,20.50
2023-04-06T09:16:05.091Z,20.60
2023-04-06T09:17:07.741Z,20.60
2023-04-06T09:18:10.194Z,20.60
2023-04-06T09:19:13.506Z,20.50
2023-04-06T09:20:24.777Z,20.50
2023-04-06T09:21:27.763Z,20.60
2023-04-06T09:22:40.544Z,20.50
2023-04-06T09:23:43.177Z,20.60
2023-04-06T09:24:46.177Z,20.60
2023-04-06T09:25:48.877Z,20.60
2023-04-06T09:26:51.378Z,20.70
2023-04-06T09:28:02.636Z,20.70
2023-04-06T09:29:05.138Z,20.70
2023-04-06T09:30:10.841Z,20.70
2023-04-06T09:31:15.783Z,20.70
2023-04-06T09:32:19.210Z,20.70
2023-04-06T09:33:25.033Z,20.70
2023-04-06T09:34:29.854Z,20.70
2023-04-06T09:35:34.149Z,20.70
2023-04-06T09:36:43.402Z,20.70
2023-04-06T09:37:47.080Z,20.60
2023-04-06T09:38:57.775Z,20.60
2023-04-06T09:40:06.317Z,20.60
2023-04-06T09:41:08.841Z,20.60
2023-04-06T09:42:12.598Z,20.60
2023-04-06T09:43:25.682Z,20.60
2023-04-06T09:44:28.454Z,20.60
2023-04-06T09:45:32.018Z,20.50
2023-04-06T09:46:57.774Z,20.60
2023-04-06T09:48:02.704Z,20.60
2023-04-06T09:49:11.873Z,20.60
2023-04-06T09:50:16.575Z,20.60
2023-04-06T09:51:20.598Z,20.60
2023-04-06T09:52:29.341Z,20.60
2023-04-06T09:53:35.831Z,20.60
2023-04-06T09:54:39.479Z,20.60
2023-04-06T09:55:44.066Z,20.70
2023-04-06T09:56:49.134Z,20.70
2023-04-06T09:58:08.382Z,20.70
2023-04-06T09:59:20.520Z,20.70
2023-04-06T10:00:24.364Z,20.70
2023-04-06T10:01:30.823Z,20.80
2023-04-06T10:02:57.471Z,20.80
2023-04-06T10:04:35.772Z,20.80
2023-04-06T10:06:14.474Z,20.70
2023-04-06T10:07:19.207Z,20.70
2023-04-06T10:08:30.929Z,20.70
2023-04-06T10:09:38.176Z,20.70
2023-04-06T10:10:41.285Z,20.80
2023-04-06T10:11:43.819Z,20.80
2023-04-06T10:12:48.578Z,20.80
2023-04-06T10:13:51.421Z,20.70
2023-04-06T10:14:55.170Z,20.80
2023-04-06T10:16:01.356Z,20.80
2023-04-06T10:17:07.303Z,20.80
2023-04-06T10:18:11.024Z,20.80
2023-04-06T10:19:21.825Z,20.80
2023-04-06T10:20:35.818Z,20.80
2023-04-06T10:21:40.826Z,20.80
2023-04-06T10:23:21.068Z,20.80
2023-04-06T10:24:23.686Z,20.80
2023-04-06T10:25:29.679Z,20.70
2023-04-06T10:26:32.636Z,20.70
2023-04-06T10:27:35.224Z,20.70
2023-04-06T10:28:37.888Z,20.70
2023-04-06T10:29:49.979Z,20.70
2023-04-06T10:31:00.607Z,20.60
2023-04-06T10:32:03.399Z,20.30
2023-04-06T10:33:20.388Z,20.30
2023-04-06T10:34:22.957Z,20.40
2023-04-06T10:35:36.911Z,20.50
2023-04-06T10:36:40.268Z,20.50
2023-04-06T10:37:51.768Z,20.60
2023-04-06T10:39:00.625Z,20.60
2023-04-06T10:40:03.170Z,20.70
2023-04-06T10:41:06.809Z,20.70
2023-04-06T10:42:09.934Z,20.70
2023-04-06T10:43:20.966Z,20.70
2023-04-06T10:44:24.946Z,20.70
2023-04-06T10:45:32.469Z,20.80
2023-04-06T10:46:35.288Z,20.80
2023-04-06T10:47:43.230Z,20.80
2023-04-06T10:48:47.687Z,20.80
2023-04-06T10:49:50.496Z,20.80
2023-04-06T10:50:55.864Z,20.80
2023-04-06T10:51:58.786Z,20.90
2023-04-06T10:53:03.013Z,20.80
2023-04-06T10:54:07.481Z,20.90
2023-04-06T10:55:12.984Z,20.80
2023-04-06T10:56:17.594Z,20.80
2023-04-06T10:57:29.944Z,20.80
2023-04-06T10:58:33.068Z,20.80
2023-04-06T10:59:35.837Z,20.80
2023-04-06T11:00:50.565Z,20.80
2023-04-06T11:01:55.998Z,20.80
2023-04-06T11:03:02.233Z,20.80
2023-04-06T11:04:05.061Z,20.80
2023-04-06T11:05:08.240Z,20.90
2023-04-06T11:06:10.961Z,20.80
2023-04-06T11:07:29.263Z,20.90
2023-04-06T11:08:33.235Z,20.80
2023-04-06T11:09:37.577Z,20.90
2023-04-06T11:10:39.989Z,20.90
2023-04-06T11:11:42.399Z,20.90
2023-04-06T11:12:44.931Z,20.90
2023-04-06T11:13:56.575Z,20.90
2023-04-06T11:15:06.936Z,20.90
2023-04-06T11:16:23.628Z,20.90
2023-04-06T11:17:28.105Z,20.90
2023-04-06T11:18:30.649Z,20.80
2023-04-06T11:19:33.207Z,20.80
2023-04-06T11:20:35.856Z,20.60
2023-04-06T11:21:49.410Z,20.30
2023-04-06T11:22:52.850Z,20.40
2023-04-06T11:24:05.934Z,20.40
2023-04-06T11:26:14.821Z,20.50
2023-04-06T11:27:18.249Z,20.50
2023-04-06T11:28:21.662Z,20.60
2023-04-06T11:29:27.264Z,20.70
2023-04-06T11:30:30.235Z,20.70
2023-04-06T11:31:32.985Z,20.70
2023-04-06T11:32:46.272Z,20.70
2023-04-06T11:33:57.401Z,20.80
2023-04-06T11:35:00.559Z,20.80
2023-04-06T11:36:03.284Z,20.80
2023-04-06T11:37:13.026Z,20.80
2023-04-06T11:38:15.930Z,20.80
2023-04-06T11:39:24.689Z,20.80
2023-04-06T11:40:28.903Z,20.80
2023-04-06T11:41:33.299Z,20.80
2023-04-06T11:42:36.601Z,20.90
2023-04-06T11:43:39.038Z,20.80
2023-04-06T11:44:46.949Z,20.80
2023-04-06T11:45:50.015Z,20.80
2023-04-06T11:46:54.497Z,20.80
2023-04-06T11:48:01.521Z,20.90
2023-04-06T11:49:04.474Z,20.90
2023-04-06T11:50:09.400Z,20.90
2023-04-06T11:51:12.779Z,20.90
2023-04-06T11:52:26.125Z,20.90
2023-04-06T11:53:30.241Z,20.90
2023-04-06T11:54:39.230Z,20.90
2023-04-06T11:55:44.579Z,20.90
2023-04-06T11:56:48.236Z,20.90
2023-04-06T11:57:52.705Z,20.90
2023-04-06T11:59:01.039Z,20.90
2023-04-06T12:00:04.358Z,20.90
2023-04-06T12:01:07.900Z,20.90
2023-04-06T12:02:11.062Z,20.90
2023-04-06T12:03:16.849Z,20.90
2023-04-06T12:04:22.633Z,20.90
2023-04-06T12:05:26.445Z,20.90
2023-04-06T12:06:29.218Z,20.90
2023-04-06T12:07:31.963Z,20.90
2023-04-06T12:08:34.714Z,20.90
2023-04-06T12:09:37.992Z,20.90
2023-04-06T12:10:40.763Z,20.90
2023-04-06T12:11:43.487Z,20.90
2023-04-06T12:12:46.513Z,20.90
2023-04-06T12:13:49.414Z,21.00
2023-04-06T12:14:53.206Z,21.00
2023-04-06T12:15:56.110Z,21.00
2023-04-06T12:17:00.941Z,21.00
2023-04-06T12:18:03.843Z,21.00
2023-04-06T12:19:07.772Z,21.10
2023-04-06T12:20:22.520Z,21.00
2023-04-06T12:21:29.588Z,21.00
2023-04-06T12:22:32.974Z,21.00
2023-04-06T12:23:35.634Z,20.90
2023-04-06T12:24:38.369Z,20.90
2023-04-06T12:25:43.022Z,20.80
2023-04-06T12:26:48.364Z,20.80
2023-04-06T12:27:51.551Z,20.80
2023-04-06T12:28:54.568Z,20.80
2023-04-06T12:29:57.280Z,20.70
2023-04-06T12:31:01.092Z,20.80
2023-04-06T12:58:35.112Z,21.10
2023-04-06T13:01:18.720Z,21.10
2023-04-06T13:02:22.236Z,21.10
2023-04-06T13:03:25.024Z,21.10
2023-04-06T13:04:27.527Z,21.10
2023-04-06T13:05:32.487Z,21.00
2023-04-06T13:06:37.629Z,20.90
2023-04-06T13:07:40.090Z,20.70
2023-04-06T13:08:44.012Z,20.60
2023-04-06T13:09:48.269Z,20.50
2023-04-06T13:10:54.351Z,20.50
2023-04-06T13:11:57.631Z,20.50
2023-04-06T13:13:02.479Z,20.30
2023-04-06T13:14:30.587Z,20.30
2023-04-06T13:15:33.163Z,20.20
2023-04-06T13:16:36.138Z,20.40
2023-04-06T13:17:38.615Z,20.50
2023-04-06T13:18:41.461Z,20.60
2023-04-06T13:19:44.672Z,20.70
2023-04-06T13:20:48.728Z,20.70
2023-04-06T13:21:51.234Z,20.80
2023-04-06T13:22:53.623Z,20.90
2023-04-06T13:23:56.072Z,20.90
2023-04-06T13:24:58.800Z,20.90
2023-04-06T13:26:08.411Z,21.00
2023-04-06T13:27:11.019Z,21.00
2023-04-06T13:28:13.511Z,21.00
2023-04-06T13:29:16.976Z,21.10
2023-04-06T13:30:19.850Z,21.10
2023-04-06T13:31:22.334Z,21.10
2023-04-06T13:32:25.652Z,21.10
2023-04-06T13:33:30.161Z,21.10
2023-04-06T13:34:32.591Z,21.10
2023-04-06T13:35:36.702Z,21.10
2023-04-06T13:36:41.831Z,21.10
2023-04-06T13:37:45.411Z,21.10
2023-04-06T13:38:47.899Z,21.10
2023-04-06T13:39:51.040Z,21.10
2023-04-06T13:40:53.727Z,21.10
2023-04-06T13:41:59.694Z,21.10
2023-04-06T13:43:03.073Z,21.10
2023-04-06T13:44:05.702Z,21.10
2023-04-06T13:45:09.399Z,21.00
2023-04-06T13:46:12.819Z,20.80
2023-04-06T13:47:16.348Z,20.70
2023-04-06T13:48:19.477Z,20.60
2023-04-06T13:49:21.992Z,20.50
2023-04-06T13:50:27.019Z,20.30
2023-04-06T13:51:29.536Z,20.20
2023-04-06T13:52:32.039Z,20.10
2023-04-06T13:53:34.457Z,20.00
2023-04-06T13:54:37.347Z,20.00
2023-04-06T13:55:39.673Z,19.90
2023-04-06T13:56:42.003Z,19.90
2023-04-06T13:57:44.588Z,19.90
2023-04-06T13:58:46.943Z,19.80
2023-04-06T13:59:51.518Z,19.70
2023-04-06T14:00:54.115Z,19.60
2023-04-06T14:01:56.708Z,19.70
2023-04-06T14:02:59.448Z,19.60
2023-04-06T14:04:02.019Z,19.50
2023-04-06T14:05:04.750Z,19.50
2023-04-06T14:07:21.029Z,19.40
2023-04-06T14:08:24.235Z,19.00
2023-04-06T14:09:26.701Z,19.00
2023-04-06T14:10:29.258Z,18.90
2023-04-06T14:11:32.895Z,18.80
2023-04-06T14:12:35.247Z,18.90
2023-04-06T14:13:39.402Z,19.00
2023-04-06T14:14:42.486Z,19.10
2023-04-06T14:15:45.069Z,18.80
2023-04-06T14:16:48.330Z,18.50
2023-04-06T14:17:51.584Z,18.60
2023-04-06T14:18:53.996Z,18.70
2023-04-06T14:19:57.274Z,18.70
2023-04-06T14:20:59.845Z,18.90
2023-04-06T14:22:02.752Z,18.80
2023-04-06T14:23:05.979Z,18.70
2023-04-06T14:24:09.728Z,18.70
2023-04-06T14:25:12.359Z,18.80
2023-04-06T14:26:14.952Z,18.90
2023-04-06T14:27:17.801Z,18.80
2023-04-06T14:28:23.149Z,18.70
2023-04-06T14:29:26.120Z,18.60